Time,TemperatureF,DewpointF,PressureIn,WindDirection,WindDirectionDegrees,WindSpeedMPH,WindSpeedGustMPH,Humidity,HourlyPrecipIn,Conditions,Clouds,dailyrainin,SoftwareType,DateUTC
2013-07-07 00:01:00,82.8,63.9,30.37,North,0,0.0,0.0,53,0.00,CLR,SCT,0.00,WeatherDisplay:10.37,2013-07-07 04:01:00,
2013-07-07 00:06:00,82.8,63.9,30.37,North,0,0.0,0.0,53,0.00,CLR,SCT,0.00,WeatherDisplay:10.37,2013-07-07 04:06:00,
2013-07-07 00:11:00,82.8,63.9,30.37,North,0,0.0,0.0,53,0.00,CLR,SCT,0.00,WeatherDisplay:10.37,2013-07-07 04:11:00,
2013-07-07 00:16:00,82.6,63.7,30.37,North,0,0.0,0.0,53,0.00,CLR,SCT,0.00,WeatherDisplay:10.37,2013-07-07 04:16:00,
2013-07-07 00:21:00,82.6,63.7,30.37,North,0,0.0,0.0,53,0.00,CLR,SCT,0.00,WeatherDisplay:10.37,2013-07-07 04:21:00,
2013-07-07 00:26:00,82.6,63.7,30.37,North,0,0.0,0.0,53,0.00,CLR,SCT,0.00,WeatherDisplay:10.37,2013-07-07 04:26:00,
2013-07-07 00:31:00,82.4,63.0,30.37,North,0,0.0,0.0,52,0.00,CLR,SCT,0.00,WeatherDisplay:10.37,2013-07-07 04:31:00,
2013-07-07 00:36:00,82.4,63.0,30.36,North,0,0.0,0.0,52,0.00,CLR,SCT,0.00,WeatherDisplay:10.37,2013-07-07 04:36:00,
2013-07-07 00:41:00,82.4,63.5,30.36,North,0,0.0,0.0,53,0.00,CLR,SCT,0.00,WeatherDisplay:10.37,2013-07-07 04:41:00,
2013-07-07 00:46:00,82.4,63.5,30.36,North,0,0.0,0.0,53,0.00,CLR,SCT,0.00,WeatherDisplay:10.37,2013-07-07 04:46:00,
2013-07-07 00:51:00,82.2,62.3,30.36,North,0,0.0,0.0,51,0.00,CLR,SCT,0.00,WeatherDisplay:10.37,2013-07-07 04:51:00,
2013-07-07 00:56:00,82.2,61.7,30.36,North,0,0.0,0.0,50,0.00,CLR,SCT,0.00,WeatherDisplay:10.37,2013-07-07 04:56:00,
2013-07-07 01:01:00,82.2,62.8,30.36,North,0,0.0,0.0,52,0.00,CLR,SCT,0.00,WeatherDisplay:10.37,2013-07-07 05:01:00,
2013-07-07 01:06:00,82.2,63.4,30.36,North,0,0.0,0.0,53,0.00,CLR,SCT,0.00,WeatherDisplay:10.37,2013-07-07 05:06:00,
2013-07-07 01:11:00,82.0,62.7,30.36,North,0,0.0,0.0,52,0.00,CLR,SCT,0.00,WeatherDisplay:10.37,2013-07-07 05:11:00,
2013-07-07 01:16:00,82.0,62.7,30.35,North,0,0.0,0.0,52,0.00,CLR,SCT,0.00,WeatherDisplay:10.37,2013-07-07 05:16:00,
2013-07-07 01:21:00,82.0,63.2,30.35,North,0,0.0,0.0,53,0.00,CLR,SCT,0.00,WeatherDisplay:10.37,2013-07-07 05:21:00,
2013-07-07 01:26:00,82.0,63.2,30.35,North,0,0.0,0.0,53,0.00,CLR,SCT,0.00,WeatherDisplay:10.37,2013-07-07 05:26:00,
2013-07-07 01:31:00,82.0,63.2,30.35,North,0,0.0,0.0,53,0.00,CLR,SCT,0.00,WeatherDisplay:10.37,2013-07-07 05:31:00,
2013-07-07 01:36:00,81.9,62.0,30.34,North,0,0.0,0.0,51,0.00,CLR,SCT,0.00,WeatherDisplay:10.37,2013-07-07 05:36:00,
2013-07-07 01:41:00,81.9,62.5,30.34,North,0,0.0,0.0,52,0.00,CLR,SCT,0.00,WeatherDisplay:10.37,2013-07-07 05:41:00,
2013-07-07 01:46:00,81.9,63.1,30.34,North,0,0.0,0.0,53,0.00,CLR,SCT,0.00,WeatherDisplay:10.37,2013-07-07 05:46:00,
2013-07-07 01:51:00,81.9,63.1,30.34,North,0,0.0,0.0,53,0.00,CLR,SCT,0.00,WeatherDisplay:10.37,2013-07-07 05:51:00,
2013-07-07 01:56:00,81.7,62.9,30.34,North,0,0.0,0.0,53,0.00,CLR,SCT,0.00,WeatherDisplay:10.37,2013-07-07 05:56:00,
2013-07-07 02:01:00,81.7,62.9,30.34,North,0,0.0,0.0,53,0.00,CLR,SCT,0.00,WeatherDisplay:10.37,2013-07-07 06:01:00,
2013-07-07 02:06:00,81.7,62.9,30.34,North,0,0.0,0.0,53,0.00,CLR,SCT,0.00,WeatherDisplay:10.37,2013-07-07 06:06:00,
2013-07-07 02:11:00,81.7,63.4,30.34,North,0,0.0,0.0,54,0.00,CLR,SCT,0.00,WeatherDisplay:10.37,2013-07-07 06:11:00,
2013-07-07 02:16:00,81.5,62.7,30.34,North,0,0.0,0.0,53,0.00,CLR,SCT,0.00,WeatherDisplay:10.37,2013-07-07 06:16:00,
2013-07-07 02:21:00,81.5,62.2,30.34,North,0,0.0,0.0,52,0.00,CLR,SCT,0.00,WeatherDisplay:10.37,2013-07-07 06:21:00,
2013-07-07 02:26:00,81.5,61.6,30.34,North,0,0.0,0.0,51,0.00,CLR,SCT,0.00,WeatherDisplay:10.37,2013-07-07 06:26:00,
2013-07-07 02:31:00,81.5,62.7,30.34,North,0,0.0,0.0,53,0.00,CLR,SCT,0.00,WeatherDisplay:10.37,2013-07-07 06:31:00,
2013-07-07 02:36:00,81.5,62.7,30.33,North,0,0.0,0.0,53,0.00,CLR,SCT,0.00,WeatherDisplay:10.37,2013-07-07 06:36:00,
2013-07-07 02:41:00,81.3,61.5,30.33,North,0,0.0,0.0,51,0.00,CLR,SCT,0.00,WeatherDisplay:10.37,2013-07-07 06:41:00,
2013-07-07 02:46:00,81.3,61.5,30.33,North,0,0.0,0.0,51,0.00,CLR,SCT,0.00,WeatherDisplay:10.37,2013-07-07 06:46:00,
2013-07-07 02:51:00,81.3,62.0,30.33,North,0,0.0,0.0,52,0.00,CLR,SCT,0.00,WeatherDisplay:10.37,2013-07-07 06:51:00,
2013-07-07 02:56:00,81.5,63.3,30.32,North,0,0.0,0.0,54,0.00,CLR,SCT,0.00,WeatherDisplay:10.37,2013-07-07 06:56:00,
2013-07-07 03:01:00,81.3,63.1,30.32,North,0,0.0,0.0,54,0.00,CLR,SCT,0.00,WeatherDisplay:10.37,2013-07-07 07:01:00,
2013-07-07 03:06:00,81.3,62.0,30.32,North,0,0.0,0.0,52,0.00,CLR,SCT,0.00,WeatherDisplay:10.37,2013-07-07 07:06:00,
2013-07-07 03:11:00,81.3,62.0,30.32,North,0,0.0,0.0,52,0.00,CLR,SCT,0.00,WeatherDisplay:10.37,2013-07-07 07:11:00,
2013-07-07 03:16:00,81.3,62.6,30.32,North,0,0.0,0.0,53,0.00,CLR,SCT,0.00,WeatherDisplay:10.37,2013-07-07 07:16:00,
2013-07-07 03:21:00,81.3,63.1,30.32,North,0,0.0,0.0,54,0.00,CLR,SCT,0.00,WeatherDisplay:10.37,2013-07-07 07:21:00,
2013-07-07 03:26:00,81.1,62.4,30.32,North,0,0.0,0.0,53,0.00,CLR,SCT,0.00,WeatherDisplay:10.37,2013-07-07 07:26:00,
2013-07-07 03:32:00,81.1,61.8,30.32,North,0,0.0,0.0,52,0.00,CLR,SCT,0.00,WeatherDisplay:10.37,2013-07-07 07:32:00,
2013-07-07 03:37:00,81.1,61.8,30.32,North,0,0.0,0.0,52,0.00,CLR,SCT,0.00,WeatherDisplay:10.37,2013-07-07 07:37:00,
2013-07-07 03:42:00,81.1,62.4,30.32,North,0,0.0,0.0,53,0.00,CLR,SCT,0.00,WeatherDisplay:10.37,2013-07-07 07:42:00,
2013-07-07 03:47:00,81.1,61.8,30.32,North,0,0.0,0.0,52,0.00,CLR,SCT,0.00,WeatherDisplay:10.37,2013-07-07 07:47:00,
2013-07-07 03:52:00,81.1,61.3,30.32,North,0,0.0,0.0,51,0.00,CLR,SCT,0.00,WeatherDisplay:10.37,2013-07-07 07:52:00,
2013-07-07 03:57:00,81.1,61.3,30.32,North,0,0.0,0.0,51,0.00,CLR,SCT,0.00,WeatherDisplay:10.37,2013-07-07 07:57:00,
2013-07-07 04:02:00,81.1,60.7,30.32,North,0,0.0,0.0,50,0.00,CLR,SCT,0.00,WeatherDisplay:10.37,2013-07-07 08:02:00,
2013-07-07 04:07:00,81.1,61.8,30.32,North,0,0.0,0.0,52,0.00,CLR,SCT,0.00,WeatherDisplay:10.37,2013-07-07 08:07:00,
2013-07-07 04:12:00,81.1,62.4,30.32,North,0,0.0,0.0,53,0.00,CLR,SCT,0.00,WeatherDisplay:10.37,2013-07-07 08:12:00,
2013-07-07 04:17:00,81.0,62.2,30.32,North,0,0.0,0.0,53,0.00,CLR,SCT,0.00,WeatherDisplay:10.37,2013-07-07 08:17:00,
2013-07-07 04:22:00,81.0,61.7,30.32,North,0,0.0,0.0,52,0.00,CLR,SCT,0.00,WeatherDisplay:10.37,2013-07-07 08:22:00,
2013-07-07 04:27:00,81.0,61.7,30.32,North,0,0.0,0.0,52,0.00,CLR,SCT,0.00,WeatherDisplay:10.37,2013-07-07 08:27:00,
2013-07-07 04:32:00,81.1,61.8,30.32,North,0,0.0,0.0,52,0.00,CLR,SCT,0.00,WeatherDisplay:10.37,2013-07-07 08:32:00,
2013-07-07 04:37:00,81.1,62.9,30.31,North,0,0.0,0.0,54,0.00,CLR,SCT,0.00,WeatherDisplay:10.37,2013-07-07 08:37:00,
2013-07-07 04:42:00,81.1,62.4,30.31,North,0,0.0,0.0,53,0.00,CLR,SCT,0.00,WeatherDisplay:10.37,2013-07-07 08:42:00,
2013-07-07 04:47:00,81.0,61.1,30.31,North,0,0.0,0.0,51,0.00,CLR,SCT,0.00,WeatherDisplay:10.37,2013-07-07 08:47:00,
2013-07-07 04:52:00,81.0,61.1,30.31,North,0,0.0,0.0,51,0.00,CLR,SCT,0.00,WeatherDisplay:10.37,2013-07-07 08:52:00,
2013-07-07 04:57:00,81.0,61.7,30.31,North,0,0.0,0.0,52,0.00,CLR,SCT,0.00,WeatherDisplay:10.37,2013-07-07 08:57:00,
2013-07-07 05:02:00,81.0,62.2,30.31,North,0,0.0,0.0,53,0.00,CLR,SCT,0.00,WeatherDisplay:10.37,2013-07-07 09:02:00,
2013-07-07 05:07:00,81.0,62.7,30.31,North,0,0.0,0.0,54,0.00,CLR,SCT,0.00,WeatherDisplay:10.37,2013-07-07 09:07:00,
2013-07-07 05:12:00,80.8,61.5,30.31,North,0,0.0,0.0,52,0.00,CLR,SCT,0.00,WeatherDisplay:10.37,2013-07-07 09:12:00,
2013-07-07 05:17:00,80.8,61.5,30.30,North,0,0.0,0.0,52,0.00,CLR,SCT,0.00,WeatherDisplay:10.37,2013-07-07 09:17:00,
2013-07-07 05:22:00,80.8,61.5,30.30,North,0,0.0,0.0,52,0.00,CLR,SCT,0.00,WeatherDisplay:10.37,2013-07-07 09:22:00,
2013-07-07 05:27:00,80.8,61.5,30.30,North,0,0.0,0.0,52,0.00,CLR,SCT,0.00,WeatherDisplay:10.37,2013-07-07 09:27:00,
2013-07-07 05:32:00,80.8,61.5,30.30,North,0,0.0,0.0,52,0.00,CLR,SCT,0.00,WeatherDisplay:10.37,2013-07-07 09:32:00,
2013-07-07 05:37:00,80.8,62.6,30.31,North,0,0.0,0.0,54,0.00,CLR,SCT,0.00,WeatherDisplay:10.37,2013-07-07 09:37:00,
2013-07-07 05:42:00,80.8,61.5,30.31,North,0,0.0,0.0,52,0.00,CLR,SCT,0.00,WeatherDisplay:10.37,2013-07-07 09:42:00,
2013-07-07 05:47:00,80.8,61.5,30.31,North,0,0.0,0.0,52,0.00,CLR,SCT,0.00,WeatherDisplay:10.37,2013-07-07 09:47:00,
2013-07-07 05:52:00,80.8,61.5,30.31,North,0,0.0,0.0,52,0.00,CLR,SCT,0.00,WeatherDisplay:10.37,2013-07-07 09:52:00,
2013-07-07 05:57:00,80.8,62.1,30.31,North,0,0.0,0.0,53,0.00,CLR,SCT,0.00,WeatherDisplay:10.37,2013-07-07 09:57:00,
2013-07-07 06:02:00,80.6,61.9,30.31,North,0,0.0,0.0,53,0.00,CLR,SCT,0.00,WeatherDisplay:10.37,2013-07-07 10:02:00,
2013-07-07 06:07:00,80.6,61.3,30.31,North,0,0.0,0.0,52,0.00,CLR,SCT,0.00,WeatherDisplay:10.37,2013-07-07 10:07:00,
2013-07-07 06:12:00,80.6,61.3,30.31,North,0,0.0,0.0,52,0.00,CLR,SCT,0.00,WeatherDisplay:10.37,2013-07-07 10:12:00,
2013-07-07 06:17:00,80.6,61.3,30.32,North,0,0.0,0.0,52,0.00,CLR,SCT,0.00,WeatherDisplay:10.37,2013-07-07 10:17:00,
2013-07-07 06:22:00,80.8,61.5,30.32,North,0,0.0,0.0,52,0.00,CLR,SCT,0.00,WeatherDisplay:10.37,2013-07-07 10:22:00,
2013-07-07 06:27:00,80.8,61.5,30.32,North,0,0.0,0.0,52,0.00,CLR,SCT,0.00,WeatherDisplay:10.37,2013-07-07 10:27:00,
2013-07-07 06:32:00,80.8,61.5,30.32,North,0,0.0,0.0,52,0.00,CLR,SCT,0.00,WeatherDisplay:10.37,2013-07-07 10:32:00,
2013-07-07 06:37:00,80.8,61.5,30.32,North,0,0.0,0.0,52,0.00,CLR,SCT,0.00,WeatherDisplay:10.37,2013-07-07 10:37:00,
2013-07-07 06:42:00,80.6,61.3,30.32,North,0,0.0,0.0,52,0.00,CLR,SCT,0.00,WeatherDisplay:10.37,2013-07-07 10:42:00,
2013-07-07 06:47:00,80.6,61.3,30.32,North,0,0.0,0.0,52,0.00,CLR,SCT,0.00,WeatherDisplay:10.37,2013-07-07 10:47:00,
2013-07-07 06:52:00,80.8,61.5,30.32,North,0,0.0,0.0,52,0.00,CLR,SCT,0.00,WeatherDisplay:10.37,2013-07-07 10:52:00,
2013-07-07 06:57:00,80.8,61.5,30.32,North,0,0.0,0.0,52,0.00,CLR,SCT,0.00,WeatherDisplay:10.37,2013-07-07 10:57:00,
2013-07-07 07:02:00,80.8,61.5,30.32,North,0,0.0,0.0,52,0.00,CLR,SCT,0.00,WeatherDisplay:10.37,2013-07-07 11:02:00,
2013-07-07 07:07:00,80.8,61.5,30.32,North,0,0.0,0.0,52,0.00,CLR,SCT,0.00,WeatherDisplay:10.37,2013-07-07 11:07:00,
2013-07-07 07:12:00,80.8,61.5,30.32,North,0,0.0,0.0,52,0.00,CLR,SCT,0.00,WeatherDisplay:10.37,2013-07-07 11:12:00,
2013-07-07 07:17:00,81.0,62.2,30.33,North,0,0.0,0.0,53,0.00,CLR,SCT,0.00,WeatherDisplay:10.37,2013-07-07 11:17:00,
2013-07-07 07:22:00,81.3,62.6,30.33,North,0,0.0,0.0,53,0.00,CLR,SCT,0.00,WeatherDisplay:10.37,2013-07-07 11:22:00,
2013-07-07 07:27:00,81.7,62.3,30.33,North,0,0.0,0.0,52,0.00,CLR,SCT,0.00,WeatherDisplay:10.37,2013-07-07 11:27:00,
2013-07-07 07:32:00,81.7,62.9,30.33,North,0,0.0,0.0,53,0.00,CLR,SCT,0.00,WeatherDisplay:10.37,2013-07-07 11:32:00,
2013-07-07 07:37:00,81.9,63.1,30.34,North,0,0.0,0.0,53,0.00,CLR,SCT,0.00,WeatherDisplay:10.37,2013-07-07 11:37:00,
2013-07-07 07:42:00,81.9,62.0,30.34,North,0,0.0,0.0,51,0.00,CLR,SCT,0.00,WeatherDisplay:10.37,2013-07-07 11:42:00,
2013-07-07 07:47:00,81.9,62.0,30.34,North,0,0.0,0.0,51,0.00,CLR,SCT,0.00,WeatherDisplay:10.37,2013-07-07 11:47:00,
2013-07-07 07:52:00,81.9,62.5,30.34,North,0,0.0,0.0,52,0.00,CLR,SCT,0.00,WeatherDisplay:10.37,2013-07-07 11:52:00,
2013-07-07 07:57:00,82.2,62.8,30.34,North,0,0.0,0.0,52,0.00,CLR,SCT,0.00,WeatherDisplay:10.37,2013-07-07 11:57:00,
2013-07-07 08:02:00,82.4,61.9,30.34,North,0,0.0,0.0,50,0.00,CLR,SCT,0.00,WeatherDisplay:10.37,2013-07-07 12:02:00,
2013-07-07 08:07:00,82.6,62.6,30.34,North,0,0.0,0.0,51,0.00,CLR,SCT,0.00,WeatherDisplay:10.37,2013-07-07 12:07:00,
2013-07-07 08:12:00,82.6,62.1,30.34,North,0,0.0,0.0,50,0.00,CLR,SCT,0.00,WeatherDisplay:10.37,2013-07-07 12:12:00,
2013-07-07 08:17:00,82.8,62.2,30.38,North,0,0.0,0.0,50,0.00,CLR,SCT,0.00,WeatherDisplay:10.37,2013-07-07 12:17:00,
2013-07-07 08:23:00,82.9,61.8,30.38,North,0,0.0,0.0,49,0.00,CLR,SCT,0.00,WeatherDisplay:10.37,2013-07-07 12:23:00,
2013-07-07 08:28:00,83.1,63.1,30.38,North,0,0.0,0.0,51,0.00,CLR,SCT,0.00,WeatherDisplay:10.37,2013-07-07 12:28:00,
2013-07-07 08:33:00,83.1,62.6,30.38,North,0,0.0,0.0,50,0.00,CLR,SCT,0.00,WeatherDisplay:10.37,2013-07-07 12:33:00,
2013-07-07 08:38:00,83.3,62.1,30.38,North,0,0.0,0.0,49,0.00,CLR,SCT,0.00,WeatherDisplay:10.37,2013-07-07 12:38:00,
2013-07-07 08:43:00,83.8,62.6,30.38,North,0,0.0,0.0,49,0.00,CLR,SCT,0.00,WeatherDisplay:10.37,2013-07-07 12:43:00,
2013-07-07 08:48:00,83.5,62.3,30.38,North,0,0.0,0.0,49,0.00,CLR,SCT,0.00,WeatherDisplay:10.37,2013-07-07 12:48:00,
2013-07-07 08:53:00,83.5,61.7,30.38,North,0,0.0,0.0,48,0.00,CLR,SCT,0.00,WeatherDisplay:10.37,2013-07-07 12:53:00,
2013-07-07 08:58:00,83.5,62.3,30.37,North,0,0.0,0.0,49,0.00,CLR,SCT,0.00,WeatherDisplay:10.37,2013-07-07 12:58:00,
2013-07-07 09:03:00,83.5,62.3,30.37,North,0,0.0,0.0,49,0.00,CLR,SCT,0.00,WeatherDisplay:10.37,2013-07-07 13:03:00,
2013-07-07 09:08:00,83.8,62.6,30.37,North,0,0.0,0.0,49,0.00,CLR,SCT,0.00,WeatherDisplay:10.37,2013-07-07 13:08:00,
2013-07-07 09:13:00,84.2,63.0,30.37,North,0,0.0,0.0,49,0.00,CLR,SCT,0.00,WeatherDisplay:10.37,2013-07-07 13:13:00,
2013-07-07 09:18:00,83.8,62.1,30.38,North,0,0.0,0.0,48,0.00,CLR,SCT,0.00,WeatherDisplay:10.37,2013-07-07 13:18:00,
2013-07-07 09:23:00,84.2,63.0,30.38,North,0,0.0,0.0,49,0.00,CLR,SCT,0.00,WeatherDisplay:10.37,2013-07-07 13:23:00,
2013-07-07 09:28:00,84.2,63.0,30.38,North,0,0.0,0.0,49,0.00,CLR,SCT,0.00,WeatherDisplay:10.37,2013-07-07 13:28:00,
2013-07-07 09:33:00,83.8,63.2,30.38,North,0,0.0,0.0,50,0.00,CLR,SCT,0.00,WeatherDisplay:10.37,2013-07-07 13:33:00,
2013-07-07 09:38:00,84.0,62.8,30.38,North,0,0.0,0.0,49,0.00,CLR,SCT,0.00,WeatherDisplay:10.37,2013-07-07 13:38:00,
2013-07-07 09:43:00,84.4,63.1,30.38,North,0,0.0,0.0,49,0.00,CLR,SCT,0.00,WeatherDisplay:10.37,2013-07-07 13:43:00,
2013-07-07 09:48:00,84.7,63.5,30.38,North,0,0.0,0.0,49,0.00,CLR,SCT,0.00,WeatherDisplay:10.37,2013-07-07 13:48:00,
2013-07-07 09:53:00,85.1,63.2,30.38,North,0,0.0,0.0,48,0.00,CLR,SCT,0.00,WeatherDisplay:10.37,2013-07-07 13:53:00,
2013-07-07 09:58:00,84.7,62.9,30.40,North,0,0.0,0.0,48,0.00,CLR,SCT,0.00,WeatherDisplay:10.37,2013-07-07 13:58:00,
2013-07-07 10:03:00,84.7,62.3,30.40,North,0,0.0,0.0,47,0.00,CLR,SCT,0.00,WeatherDisplay:10.37,2013-07-07 14:03:00,
2013-07-07 10:08:00,84.9,63.0,30.40,North,0,0.0,0.0,48,0.00,CLR,SCT,0.00,WeatherDisplay:10.37,2013-07-07 14:08:00,
2013-07-07 10:13:00,85.3,62.8,30.40,North,0,0.0,0.0,47,0.00,CLR,SCT,0.00,WeatherDisplay:10.37,2013-07-07 14:13:00,
2013-07-07 10:18:00,85.5,62.3,30.39,North,0,0.0,0.0,46,0.00,CLR,SCT,0.00,WeatherDisplay:10.37,2013-07-07 14:18:00,
2013-07-07 10:23:00,85.5,62.3,30.39,North,0,0.0,0.0,46,0.00,CLR,SCT,0.00,WeatherDisplay:10.37,2013-07-07 14:23:00,
2013-07-07 10:28:00,85.6,63.1,30.39,North,0,0.0,0.0,47,0.00,CLR,SCT,0.00,WeatherDisplay:10.37,2013-07-07 14:28:00,
2013-07-07 10:33:00,85.8,62.0,30.39,North,0,0.0,0.0,45,0.00,CLR,SCT,0.00,WeatherDisplay:10.37,2013-07-07 14:33:00,
2013-07-07 10:38:00,86.0,62.2,30.40,North,0,0.0,0.0,45,0.00,CLR,SCT,0.00,WeatherDisplay:10.37,2013-07-07 14:38:00,
2013-07-07 10:43:00,86.0,62.2,30.40,North,0,0.0,0.0,45,0.00,CLR,SCT,0.00,WeatherDisplay:10.37,2013-07-07 14:43:00,
2013-07-07 10:48:00,86.0,61.5,30.40,North,0,0.0,0.0,44,0.00,CLR,SCT,0.00,WeatherDisplay:10.37,2013-07-07 14:48:00,
2013-07-07 10:53:00,86.0,61.5,30.40,North,0,0.0,0.0,44,0.00,CLR,SCT,0.00,WeatherDisplay:10.37,2013-07-07 14:53:00,
2013-07-07 10:58:00,86.4,63.1,30.41,North,0,0.0,0.0,46,0.00,CLR,SCT,0.00,WeatherDisplay:10.37,2013-07-07 14:58:00,
2013-07-07 11:03:00,86.5,62.0,30.41,North,0,0.0,0.0,44,0.00,CLR,SCT,0.00,WeatherDisplay:10.37,2013-07-07 15:03:00,
2013-07-07 11:08:00,86.7,62.2,30.41,North,0,0.0,0.0,44,0.00,CLR,SCT,0.00,WeatherDisplay:10.37,2013-07-07 15:08:00,
2013-07-07 11:13:00,86.9,62.4,30.41,North,0,0.0,0.0,44,0.00,CLR,SCT,0.00,WeatherDisplay:10.37,2013-07-07 15:13:00,
2013-07-07 11:18:00,86.9,63.0,30.41,North,0,0.0,0.0,45,0.00,CLR,SCT,0.00,WeatherDisplay:10.37,2013-07-07 15:18:00,
2013-07-07 11:23:00,86.5,62.0,30.41,North,0,0.0,0.0,44,0.00,CLR,SCT,0.00,WeatherDisplay:10.37,2013-07-07 15:23:00,
2013-07-07 11:28:00,86.5,62.0,30.41,North,0,0.0,0.0,44,0.00,CLR,SCT,0.00,WeatherDisplay:10.37,2013-07-07 15:28:00,
2013-07-07 11:33:00,86.9,63.6,30.41,North,0,0.0,0.0,46,0.00,CLR,SCT,0.00,WeatherDisplay:10.37,2013-07-07 15:33:00,
2013-07-07 11:38:00,87.1,63.2,30.41,North,0,0.0,0.0,45,0.00,CLR,SCT,0.00,WeatherDisplay:10.37,2013-07-07 15:38:00,
2013-07-07 11:43:00,87.1,61.9,30.41,North,0,0.0,0.0,43,0.00,CLR,SCT,0.00,WeatherDisplay:10.37,2013-07-07 15:43:00,
2013-07-07 11:48:00,86.9,61.7,30.41,North,0,0.0,0.0,43,0.00,CLR,SCT,0.00,WeatherDisplay:10.37,2013-07-07 15:48:00,
2013-07-07 11:53:00,87.3,63.3,30.41,North,0,0.0,0.0,45,0.00,CLR,SCT,0.00,WeatherDisplay:10.37,2013-07-07 15:53:00,
2013-07-07 11:58:00,87.6,63.7,30.40,North,0,0.0,0.0,45,0.00,CLR,SCT,0.00,WeatherDisplay:10.37,2013-07-07 15:58:00,
2013-07-07 12:03:00,87.8,63.2,30.40,North,0,0.0,0.0,44,0.00,CLR,SCT,0.00,WeatherDisplay:10.37,2013-07-07 16:03:00,
2013-07-07 12:08:00,87.4,62.2,30.40,North,0,0.0,0.0,43,0.00,CLR,SCT,0.00,WeatherDisplay:10.37,2013-07-07 16:08:00,
2013-07-07 12:13:00,87.3,63.3,30.40,North,0,0.0,0.0,45,0.00,CLR,SCT,0.00,WeatherDisplay:10.37,2013-07-07 16:13:00,
2013-07-07 12:18:00,86.5,64.5,30.41,North,0,0.0,0.0,48,0.00,CLR,SCT,0.00,WeatherDisplay:10.37,2013-07-07 16:18:00,
2013-07-07 12:23:00,86.7,64.7,30.41,North,0,0.0,0.0,48,0.00,CLR,SCT,0.00,WeatherDisplay:10.37,2013-07-07 16:23:00,
2013-07-07 12:28:00,86.9,63.6,30.41,North,0,0.0,0.0,46,0.00,CLR,SCT,0.00,WeatherDisplay:10.37,2013-07-07 16:28:00,
2013-07-07 12:33:00,87.4,64.1,30.41,North,0,0.0,0.0,46,0.00,CLR,SCT,0.00,WeatherDisplay:10.37,2013-07-07 16:33:00,
2013-07-07 12:38:00,88.2,65.4,30.40,North,0,0.0,0.0,47,0.00,CLR,SCT,0.00,WeatherDisplay:10.37,2013-07-07 16:38:00,
2013-07-07 12:43:00,88.2,64.1,30.40,North,0,0.0,0.0,45,0.00,CLR,SCT,0.00,WeatherDisplay:10.37,2013-07-07 16:43:00,
2013-07-07 12:48:00,88.2,62.8,30.40,North,0,0.0,0.0,43,0.00,CLR,SCT,0.00,WeatherDisplay:10.37,2013-07-07 16:48:00,
2013-07-07 12:53:00,88.2,63.5,30.40,North,0,0.0,0.0,44,0.00,CLR,SCT,0.00,WeatherDisplay:10.37,2013-07-07 16:53:00,
2013-07-07 12:58:00,88.3,64.3,30.40,North,0,0.0,0.0,45,0.00,CLR,SCT,0.00,WeatherDisplay:10.37,2013-07-07 16:58:00,
2013-07-07 13:03:00,88.2,63.5,30.40,North,0,0.0,0.0,44,0.00,CLR,SCT,0.00,WeatherDisplay:10.37,2013-07-07 17:03:00,
2013-07-07 13:08:00,87.4,65.3,30.40,North,0,0.0,0.0,48,0.00,CLR,SCT,0.00,WeatherDisplay:10.37,2013-07-07 17:08:00,
2013-07-07 13:13:00,86.4,64.4,30.40,North,0,0.0,0.0,48,0.00,CLR,SCT,0.00,WeatherDisplay:10.37,2013-07-07 17:13:00,
2013-07-07 13:18:00,86.5,65.1,30.39,North,0,0.0,0.0,49,0.00,CLR,SCT,0.00,WeatherDisplay:10.37,2013-07-07 17:18:00,
2013-07-07 13:23:00,86.9,65.4,30.39,North,0,0.0,0.0,49,0.00,CLR,SCT,0.00,WeatherDisplay:10.37,2013-07-07 17:23:00,
2013-07-07 13:28:00,86.9,65.4,30.39,North,0,0.0,0.0,49,0.00,CLR,SCT,0.00,WeatherDisplay:10.37,2013-07-07 17:28:00,
2013-07-07 13:33:00,86.9,64.2,30.39,North,0,0.0,0.0,47,0.00,CLR,SCT,0.00,WeatherDisplay:10.37,2013-07-07 17:33:00,
2013-07-07 13:38:00,87.1,64.4,30.40,North,0,0.0,0.0,47,0.00,CLR,SCT,0.00,WeatherDisplay:10.37,2013-07-07 17:38:00,
2013-07-07 13:44:00,87.3,64.0,30.40,North,0,0.0,0.0,46,0.00,CLR,SCT,0.00,WeatherDisplay:10.37,2013-07-07 17:44:00,
2013-07-07 13:49:00,87.6,64.3,30.40,North,0,0.0,0.0,46,0.00,CLR,SCT,0.00,WeatherDisplay:10.37,2013-07-07 17:49:00,
2013-07-07 13:54:00,87.8,63.8,30.40,North,0,0.0,0.0,45,0.00,CLR,SCT,0.00,WeatherDisplay:10.37,2013-07-07 17:54:00,
2013-07-07 13:59:00,88.3,64.3,30.40,North,0,0.0,0.0,45,0.00,CLR,SCT,0.00,WeatherDisplay:10.37,2013-07-07 17:59:00,
2013-07-07 14:04:00,88.3,63.7,30.40,North,0,0.0,0.0,44,0.00,CLR,SCT,0.00,WeatherDisplay:10.37,2013-07-07 18:04:00,
2013-07-07 14:09:00,88.9,64.1,30.40,North,0,0.0,0.0,44,0.00,CLR,SCT,0.00,WeatherDisplay:10.37,2013-07-07 18:09:00,
2013-07-07 14:14:00,89.2,63.1,30.40,North,0,0.0,0.0,42,0.00,CLR,SCT,0.00,WeatherDisplay:10.37,2013-07-07 18:14:00,
2013-07-07 14:19:00,89.1,63.7,30.39,North,0,0.0,0.0,43,0.00,CLR,SCT,0.00,WeatherDisplay:10.37,2013-07-07 18:19:00,
2013-07-07 14:24:00,89.4,63.3,30.39,North,0,0.0,0.0,42,0.00,CLR,SCT,0.00,WeatherDisplay:10.37,2013-07-07 18:24:00,
2013-07-07 14:29:00,89.4,63.3,30.39,North,0,0.0,0.0,42,0.00,CLR,SCT,0.00,WeatherDisplay:10.37,2013-07-07 18:29:00,
2013-07-07 14:34:00,89.4,63.3,30.39,North,0,0.0,0.0,42,0.00,CLR,SCT,0.00,WeatherDisplay:10.37,2013-07-07 18:34:00,
2013-07-07 14:39:00,89.6,63.5,30.39,North,0,0.0,0.0,42,0.00,CLR,SCT,0.00,WeatherDisplay:10.37,2013-07-07 18:39:00,
2013-07-07 14:44:00,89.6,63.5,30.39,North,0,0.0,0.0,42,0.00,CLR,SCT,0.00,WeatherDisplay:10.37,2013-07-07 18:44:00,
2013-07-07 14:49:00,89.2,63.1,30.39,North,0,0.0,0.0,42,0.00,CLR,SCT,0.00,WeatherDisplay:10.37,2013-07-07 18:49:00,
2013-07-07 14:54:00,89.4,64.0,30.39,North,0,0.0,0.0,43,0.00,CLR,SCT,0.00,WeatherDisplay:10.37,2013-07-07 18:54:00,
2013-07-07 14:59:00,89.4,62.6,30.38,North,0,0.0,0.0,41,0.00,CLR,SCT,0.00,WeatherDisplay:10.37,2013-07-07 18:59:00,
2013-07-07 15:04:00,89.6,62.8,30.38,North,0,0.0,0.0,41,0.00,CLR,SCT,0.00,WeatherDisplay:10.37,2013-07-07 19:04:00,
2013-07-07 15:09:00,89.8,64.3,30.38,North,0,0.0,0.0,43,0.00,CLR,SCT,0.00,WeatherDisplay:10.37,2013-07-07 19:09:00,
2013-07-07 15:14:00,89.8,64.3,30.38,North,0,0.0,0.0,43,0.00,CLR,SCT,0.00,WeatherDisplay:10.37,2013-07-07 19:14:00,
2013-07-07 15:19:00,89.6,64.1,30.39,North,0,0.0,0.0,43,0.00,CLR,SCT,0.00,WeatherDisplay:10.37,2013-07-07 19:19:00,
2013-07-07 15:24:00,90.0,64.5,30.39,North,0,0.0,0.0,43,0.00,CLR,SCT,0.00,WeatherDisplay:10.37,2013-07-07 19:24:00,
2013-07-07 15:29:00,90.0,64.5,30.39,North,0,0.0,0.0,43,0.00,CLR,SCT,0.00,WeatherDisplay:10.37,2013-07-07 19:29:00,
2013-07-07 15:34:00,90.1,64.0,30.39,North,0,0.0,0.0,42,0.00,CLR,SCT,0.00,WeatherDisplay:10.37,2013-07-07 19:34:00,
2013-07-07 15:39:00,90.5,63.6,30.38,North,0,0.0,0.0,41,0.00,CLR,SCT,0.00,WeatherDisplay:10.37,2013-07-07 19:39:00,
2013-07-07 15:44:00,90.5,63.6,30.38,North,0,0.0,0.0,41,0.00,CLR,SCT,0.00,WeatherDisplay:10.37,2013-07-07 19:44:00,
2013-07-07 15:49:00,90.1,61.8,30.38,North,0,0.0,0.0,39,0.00,CLR,SCT,0.00,WeatherDisplay:10.37,2013-07-07 19:49:00,
2013-07-07 15:54:00,90.1,61.8,30.38,North,0,0.0,0.0,39,0.00,CLR,SCT,0.00,WeatherDisplay:10.37,2013-07-07 19:54:00,
2013-07-07 15:59:00,90.3,62.7,30.38,North,0,0.0,0.0,40,0.00,CLR,SCT,0.00,WeatherDisplay:10.37,2013-07-07 19:59:00,
2013-07-07 16:04:00,90.5,63.6,30.38,North,0,0.0,0.0,41,0.00,CLR,SCT,0.00,WeatherDisplay:10.37,2013-07-07 20:04:00,
2013-07-07 16:09:00,90.5,62.2,30.38,North,0,0.0,0.0,39,0.00,CLR,SCT,0.00,WeatherDisplay:10.37,2013-07-07 20:09:00,
2013-07-07 16:14:00,90.5,63.6,30.38,North,0,0.0,0.0,41,0.00,CLR,SCT,0.00,WeatherDisplay:10.37,2013-07-07 20:14:00,
2013-07-07 16:19:00,90.5,62.2,30.37,North,0,0.0,0.0,39,0.00,CLR,SCT,0.00,WeatherDisplay:10.37,2013-07-07 20:19:00,
2013-07-07 16:24:00,90.5,62.2,30.37,North,0,0.0,0.0,39,0.00,CLR,SCT,0.00,WeatherDisplay:10.37,2013-07-07 20:24:00,
2013-07-07 16:29:00,90.9,62.5,30.37,North,0,0.0,0.0,39,0.00,CLR,SCT,0.00,WeatherDisplay:10.37,2013-07-07 20:29:00,
2013-07-07 16:34:00,90.9,62.5,30.37,North,0,0.0,0.0,39,0.00,CLR,SCT,0.00,WeatherDisplay:10.37,2013-07-07 20:34:00,
2013-07-07 16:39:00,90.7,62.3,30.37,North,0,0.0,0.0,39,0.00,CLR,SCT,0.00,WeatherDisplay:10.37,2013-07-07 20:39:00,
2013-07-07 16:44:00,90.7,62.3,30.37,North,0,0.0,0.0,39,0.00,CLR,SCT,0.00,WeatherDisplay:10.37,2013-07-07 20:44:00,
2013-07-07 16:49:00,90.5,62.2,30.37,North,0,0.0,0.0,39,0.00,CLR,SCT,0.00,WeatherDisplay:10.37,2013-07-07 20:49:00,
2013-07-07 16:54:00,90.9,61.7,30.37,North,0,0.0,0.0,38,0.00,CLR,SCT,0.00,WeatherDisplay:10.37,2013-07-07 20:54:00,
2013-07-07 16:59:00,91.2,62.1,30.36,North,0,0.0,0.0,38,0.00,CLR,SCT,0.00,WeatherDisplay:10.37,2013-07-07 20:59:00,
2013-07-07 17:04:00,91.2,62.1,30.36,North,0,0.0,0.0,38,0.00,CLR,SCT,0.00,WeatherDisplay:10.37,2013-07-07 21:04:00,
2013-07-07 17:10:00,91.2,62.1,30.36,North,0,0.0,0.0,38,0.00,CLR,SCT,0.00,WeatherDisplay:10.37,2013-07-07 21:10:00,
2013-07-07 17:15:00,90.9,62.5,30.36,North,0,0.0,0.0,39,0.00,CLR,SCT,0.00,WeatherDisplay:10.37,2013-07-07 21:15:00,
2013-07-07 17:20:00,90.5,62.2,30.36,North,0,0.0,0.0,39,0.00,CLR,SCT,0.00,WeatherDisplay:10.37,2013-07-07 21:20:00,
2013-07-07 17:25:00,90.7,63.7,30.36,North,0,0.0,0.0,41,0.00,CLR,SCT,0.00,WeatherDisplay:10.37,2013-07-07 21:25:00,
2013-07-07 17:30:00,90.3,62.7,30.36,North,0,0.0,0.0,40,0.00,CLR,SCT,0.00,WeatherDisplay:10.37,2013-07-07 21:30:00,
2013-07-07 17:35:00,90.3,63.4,30.36,North,0,0.0,0.0,41,0.00,CLR,SCT,0.00,WeatherDisplay:10.37,2013-07-07 21:35:00,
2013-07-07 17:40:00,90.3,62.0,30.36,North,0,0.0,0.0,39,0.00,CLR,SCT,0.00,WeatherDisplay:10.37,2013-07-07 21:40:00,
2013-07-07 17:45:00,90.7,62.3,30.36,North,0,0.0,0.0,39,0.00,CLR,SCT,0.00,WeatherDisplay:10.37,2013-07-07 21:45:00,
2013-07-07 17:50:00,90.7,62.3,30.36,North,0,0.0,0.0,39,0.00,CLR,SCT,0.00,WeatherDisplay:10.37,2013-07-07 21:50:00,
2013-07-07 17:55:00,90.9,62.5,30.36,North,0,0.0,0.0,39,0.00,CLR,SCT,0.00,WeatherDisplay:10.37,2013-07-07 21:55:00,
2013-07-07 18:00:00,91.0,61.9,30.35,North,0,0.0,0.0,38,0.00,CLR,SCT,0.00,WeatherDisplay:10.37,2013-07-07 22:00:00,
2013-07-07 18:05:00,91.6,62.4,30.35,North,0,0.0,0.0,38,0.00,CLR,SCT,0.00,WeatherDisplay:10.37,2013-07-07 22:05:00,
2013-07-07 18:10:00,91.2,62.1,30.35,North,0,0.0,0.0,38,0.00,CLR,SCT,0.00,WeatherDisplay:10.37,2013-07-07 22:10:00,
2013-07-07 18:15:00,91.9,62.7,30.35,North,0,0.0,0.0,38,0.00,CLR,SCT,0.00,WeatherDisplay:10.37,2013-07-07 22:15:00,
2013-07-07 18:20:00,98.8,62.9,30.34,North,0,0.0,0.0,31,0.00,CLR,SCT,0.00,WeatherDisplay:10.37,2013-07-07 22:20:00,
2013-07-07 18:25:00,102.6,63.2,30.34,North,0,0.0,0.0,28,0.00,CLR,SCT,0.00,WeatherDisplay:10.37,2013-07-07 22:25:00,
2013-07-07 18:30:00,104.0,61.2,30.34,North,0,0.0,0.0,25,0.00,CLR,SCT,0.00,WeatherDisplay:10.37,2013-07-07 22:30:00,
2013-07-07 18:35:00,106.2,60.7,30.34,North,0,0.0,0.0,23,0.00,CLR,SCT,0.00,WeatherDisplay:10.37,2013-07-07 22:35:00,
2013-07-07 18:40:00,105.3,58.7,30.34,North,0,0.0,0.0,22,0.00,CLR,SCT,0.00,WeatherDisplay:10.37,2013-07-07 22:40:00,
2013-07-07 18:45:00,99.0,58.1,30.34,North,0,0.0,0.0,26,0.00,CLR,SCT,0.00,WeatherDisplay:10.37,2013-07-07 22:45:00,
2013-07-07 18:50:00,94.8,59.5,30.34,North,0,0.0,0.0,31,0.00,CLR,SCT,0.00,WeatherDisplay:10.37,2013-07-07 22:50:00,
2013-07-07 18:55:00,92.7,58.5,30.34,North,0,0.0,0.0,32,0.00,CLR,SCT,0.00,WeatherDisplay:10.37,2013-07-07 22:55:00,
2013-07-07 19:00:00,91.6,59.2,30.34,North,0,0.0,0.0,34,0.00,CLR,SCT,0.00,WeatherDisplay:10.37,2013-07-07 23:00:00,
2013-07-07 19:05:00,90.7,60.1,30.34,North,0,0.0,0.0,36,0.00,CLR,SCT,0.00,WeatherDisplay:10.37,2013-07-07 23:05:00,
2013-07-07 19:10:00,90.7,60.1,30.34,North,0,0.0,0.0,36,0.00,CLR,SCT,0.00,WeatherDisplay:10.37,2013-07-07 23:10:00,
2013-07-07 19:15:00,91.0,60.4,30.34,North,0,0.0,0.0,36,0.00,CLR,SCT,0.00,WeatherDisplay:10.37,2013-07-07 23:15:00,
2013-07-07 19:20:00,90.1,60.4,30.34,North,0,0.0,0.0,37,0.00,CLR,SCT,0.00,WeatherDisplay:10.37,2013-07-07 23:20:00,
2013-07-07 19:25:00,89.6,59.9,30.34,North,0,0.0,0.0,37,0.00,CLR,SCT,0.00,WeatherDisplay:10.37,2013-07-07 23:25:00,
2013-07-07 19:30:00,88.9,60.0,30.34,North,0,0.0,0.0,38,0.00,CLR,SCT,0.00,WeatherDisplay:10.37,2013-07-07 23:30:00,
2013-07-07 19:35:00,88.3,59.5,30.34,North,0,0.0,0.0,38,0.00,CLR,SCT,0.00,WeatherDisplay:10.37,2013-07-07 23:35:00,
2013-07-07 19:40:00,87.8,59.8,30.35,North,0,0.0,0.0,39,0.00,CLR,SCT,0.00,WeatherDisplay:10.37,2013-07-07 23:40:00,
2013-07-07 19:45:00,87.6,61.0,30.35,North,0,0.0,0.0,41,0.00,CLR,SCT,0.00,WeatherDisplay:10.37,2013-07-07 23:45:00,
2013-07-07 19:50:00,87.1,61.2,30.35,North,0,0.0,0.0,42,0.00,CLR,SCT,0.00,WeatherDisplay:10.37,2013-07-07 23:50:00,
2013-07-07 19:55:00,86.9,59.7,30.35,North,0,0.0,0.0,40,0.00,CLR,SCT,0.00,WeatherDisplay:10.37,2013-07-07 23:55:00,
2013-07-07 20:00:00,86.5,60.7,30.33,North,0,0.0,0.0,42,0.00,CLR,SCT,0.00,WeatherDisplay:10.37,2013-07-08 00:00:00,
2013-07-07 20:05:00,86.0,61.5,30.33,North,0,0.0,0.0,44,0.00,CLR,SCT,0.00,WeatherDisplay:10.37,2013-07-08 00:05:00,
2013-07-07 20:10:00,85.8,62.0,30.33,North,0,0.0,0.0,45,0.00,CLR,SCT,0.00,WeatherDisplay:10.37,2013-07-08 00:10:00,
2013-07-07 20:15:00,85.5,61.7,30.32,North,0,0.0,0.0,45,0.00,CLR,SCT,0.00,WeatherDisplay:10.37,2013-07-08 00:15:00,
2013-07-07 20:20:00,85.3,62.8,30.32,North,0,0.0,0.0,47,0.00,CLR,SCT,0.00,WeatherDisplay:10.37,2013-07-08 00:20:00,
2013-07-07 20:25:00,85.1,62.6,30.32,North,0,0.0,0.0,47,0.00,CLR,SCT,0.00,WeatherDisplay:10.37,2013-07-08 00:25:00,
2013-07-07 20:30:00,84.7,62.3,30.32,North,0,0.0,0.0,47,0.00,CLR,SCT,0.00,WeatherDisplay:10.37,2013-07-08 00:30:00,
2013-07-07 20:35:00,84.7,62.3,30.32,North,0,0.0,0.0,47,0.00,CLR,SCT,0.00,WeatherDisplay:10.37,2013-07-08 00:35:00,
2013-07-07 20:40:00,84.7,62.9,30.32,North,0,0.0,0.0,48,0.00,CLR,SCT,0.00,WeatherDisplay:10.37,2013-07-08 00:40:00,
2013-07-07 20:45:00,84.6,62.1,30.32,North,0,0.0,0.0,47,0.00,CLR,SCT,0.00,WeatherDisplay:10.37,2013-07-08 00:45:00,
2013-07-07 20:50:00,84.4,60.7,30.32,North,0,0.0,0.0,45,0.00,CLR,SCT,0.00,WeatherDisplay:10.37,2013-07-08 00:50:00,
2013-07-07 20:55:00,84.4,61.9,30.33,North,0,0.0,0.0,47,0.00,CLR,SCT,0.00,WeatherDisplay:10.37,2013-07-08 00:55:00,
2013-07-07 21:00:00,84.2,61.8,30.33,North,0,0.0,0.0,47,0.00,CLR,SCT,0.00,WeatherDisplay:10.37,2013-07-08 01:00:00,
2013-07-07 21:05:00,84.2,61.8,30.33,North,0,0.0,0.0,47,0.00,CLR,SCT,0.00,WeatherDisplay:10.37,2013-07-08 01:05:00,
2013-07-07 21:10:00,84.2,62.4,30.33,North,0,0.0,0.0,48,0.00,CLR,SCT,0.00,WeatherDisplay:10.37,2013-07-08 01:10:00,
2013-07-07 21:15:00,84.2,62.4,30.33,North,0,0.0,0.0,48,0.00,CLR,SCT,0.00,WeatherDisplay:10.37,2013-07-08 01:15:00,
2013-07-07 21:21:00,84.0,62.2,30.33,North,0,0.0,0.0,48,0.00,CLR,SCT,0.00,WeatherDisplay:10.37,2013-07-08 01:21:00,
2013-07-07 21:26:00,84.0,62.2,30.33,North,0,0.0,0.0,48,0.00,CLR,SCT,0.00,WeatherDisplay:10.37,2013-07-08 01:26:00,
2013-07-07 21:31:00,84.0,62.2,30.33,North,0,0.0,0.0,48,0.00,CLR,SCT,0.00,WeatherDisplay:10.37,2013-07-08 01:31:00,
2013-07-07 21:36:00,83.8,62.1,30.33,North,0,0.0,0.0,48,0.00,CLR,SCT,0.00,WeatherDisplay:10.37,2013-07-08 01:36:00,
2013-07-07 21:41:00,83.7,62.5,30.33,North,0,0.0,0.0,49,0.00,CLR,SCT,0.00,WeatherDisplay:10.37,2013-07-08 01:41:00,
2013-07-07 21:46:00,83.7,62.5,30.33,North,0,0.0,0.0,49,0.00,CLR,SCT,0.00,WeatherDisplay:10.37,2013-07-08 01:46:00,
2013-07-07 21:51:00,83.7,62.5,30.33,North,0,0.0,0.0,49,0.00,CLR,SCT,0.00,WeatherDisplay:10.37,2013-07-08 01:51:00,
2013-07-07 21:56:00,83.7,62.5,30.34,North,0,0.0,0.0,49,0.00,CLR,SCT,0.00,WeatherDisplay:10.37,2013-07-08 01:56:00,
2013-07-07 22:01:00,83.5,61.7,30.34,North,0,0.0,0.0,48,0.00,CLR,SCT,0.00,WeatherDisplay:10.37,2013-07-08 02:01:00,
2013-07-07 22:06:00,83.5,61.1,30.34,North,0,0.0,0.0,47,0.00,CLR,SCT,0.00,WeatherDisplay:10.37,2013-07-08 02:06:00,
2013-07-07 22:11:00,83.5,61.7,30.34,North,0,0.0,0.0,48,0.00,CLR,SCT,0.00,WeatherDisplay:10.37,2013-07-08 02:11:00,
2013-07-07 22:16:00,83.5,61.7,30.34,North,0,0.0,0.0,48,0.00,CLR,SCT,0.00,WeatherDisplay:10.37,2013-07-08 02:16:00,
2013-07-07 22:21:00,83.5,62.3,30.34,North,0,0.0,0.0,49,0.00,CLR,SCT,0.00,WeatherDisplay:10.37,2013-07-08 02:21:00,
2013-07-07 22:26:00,83.3,62.1,30.34,North,0,0.0,0.0,49,0.00,CLR,SCT,0.00,WeatherDisplay:10.37,2013-07-08 02:26:00,
2013-07-07 22:31:00,83.1,62.0,30.34,North,0,0.0,0.0,49,0.00,CLR,SCT,0.00,WeatherDisplay:10.37,2013-07-08 02:31:00,
2013-07-07 22:36:00,83.1,62.0,30.35,North,0,0.0,0.0,49,0.00,CLR,SCT,0.00,WeatherDisplay:10.37,2013-07-08 02:36:00,
2013-07-07 22:41:00,82.9,61.8,30.35,North,0,0.0,0.0,49,0.00,CLR,SCT,0.00,WeatherDisplay:10.37,2013-07-08 02:41:00,
2013-07-07 22:46:00,82.9,61.8,30.35,North,0,0.0,0.0,49,0.00,CLR,SCT,0.00,WeatherDisplay:10.37,2013-07-08 02:46:00,
2013-07-07 22:51:00,82.9,61.8,30.35,North,0,0.0,0.0,49,0.00,CLR,SCT,0.00,WeatherDisplay:10.37,2013-07-08 02:51:00,
2013-07-07 22:56:00,82.9,61.8,30.37,North,0,0.0,0.0,49,0.00,CLR,SCT,0.00,WeatherDisplay:10.37,2013-07-08 02:56:00,
2013-07-07 23:01:00,82.9,61.2,30.37,North,0,0.0,0.0,48,0.00,CLR,SCT,0.00,WeatherDisplay:10.37,2013-07-08 03:01:00,
2013-07-07 23:06:00,82.9,61.2,30.37,North,0,0.0,0.0,48,0.00,CLR,SCT,0.00,WeatherDisplay:10.37,2013-07-08 03:06:00,
2013-07-07 23:11:00,82.9,61.2,30.37,North,0,0.0,0.0,48,0.00,CLR,SCT,0.00,WeatherDisplay:10.37,2013-07-08 03:11:00,
2013-07-07 23:16:00,83.1,62.0,30.37,North,0,0.0,0.0,49,0.00,CLR,SCT,0.00,WeatherDisplay:10.37,2013-07-08 03:16:00,
2013-07-07 23:21:00,82.9,61.2,30.37,North,0,0.0,0.0,48,0.00,CLR,SCT,0.00,WeatherDisplay:10.37,2013-07-08 03:21:00,
2013-07-07 23:26:00,82.9,61.8,30.37,North,0,0.0,0.0,49,0.00,CLR,SCT,0.00,WeatherDisplay:10.37,2013-07-08 03:26:00,
2013-07-07 23:31:00,82.9,61.8,30.37,North,0,0.0,0.0,49,0.00,CLR,SCT,0.00,WeatherDisplay:10.37,2013-07-08 03:31:00,
2013-07-07 23:36:00,82.9,61.8,30.37,North,0,0.0,0.0,49,0.00,CLR,SCT,0.00,WeatherDisplay:10.37,2013-07-08 03:36:00,
2013-07-07 23:41:00,82.8,61.1,30.37,North,0,0.0,0.0,48,0.00,CLR,SCT,0.00,WeatherDisplay:10.37,2013-07-08 03:41:00,
2013-07-07 23:46:00,82.8,61.1,30.37,North,0,0.0,0.0,48,0.00,CLR,SCT,0.00,WeatherDisplay:10.37,2013-07-08 03:46:00,
2013-07-07 23:51:00,82.8,61.6,30.37,North,0,0.0,0.0,49,0.00,CLR,SCT,0.00,WeatherDisplay:10.37,2013-07-08 03:51:00,
2013-07-07 23:56:00,82.8,61.6,30.37,North,0,0.0,0.0,49,0.00,CLR,SCT,0.00,WeatherDisplay:10.37,2013-07-08 03:56:00,